Time;durP1;ratioP1;P1;durP2;ratioP2;P2;SDS_P1;SDS_P2;PMS_P1;PMS_P2;Temp;Humidity;BMP_temperature;BMP_pressure;BME280_temperature;BME280_humidity;BME280_pressure;Samples;Min_cycle;Max_cycle;Signal;HPM_P1;HPM_P2
2023/12/01 00:02:06;;;;;;;30.50;12.77;;;2.10;88.10;;;;;;5133111;27;20024;-33
2023/12/01 00:04:32;;;;;;;36.58;15.15;;;2.10;88.30;;;;;;5132155;27;20019;-32
2023/12/01 00:06:57;;;;;;;37.10;15.35;;;2.10;88.20;;;;;;5133097;27;20029;-32
2023/12/01 00:09:23;;;;;;;37.53;15.80;;;1.90;87.90;;;;;;5133049;27;20115;-33
2023/12/01 00:11:49;;;;;;;40.85;15.50;;;1.90;88.10;;;;;;5132895;27;20023;-33
2023/12/01 00:14:15;;;;;;;38.67;13.65;;;1.90;88.40;;;;;;5132815;27;20358;-33
2023/12/01 00:16:40;;;;;;;44.25;16.60;;;1.80;88.50;;;;;;5132789;27;20027;-33
2023/12/01 00:19:06;;;;;;;45.20;16.33;;;1.80;88.60;;;;;;5132894;27;20098;-33
2023/12/01 00:21:31;;;;;;;44.88;16.83;;;1.80;88.60;;;;;;5132641;27;20076;-32
2023/12/01 00:23:57;;;;;;;47.78;17.90;;;1.80;88.60;;;;;;5132378;27;20084;-32
2023/12/01 00:26:22;;;;;;;43.08;16.73;;;1.80;88.50;;;;;;5132395;27;20023;-32
2023/12/01 00:28:48;;;;;;;46.58;16.25;;;1.70;88.60;;;;;;5132490;27;20142;-32
2023/12/01 00:31:13;;;;;;;42.35;16.10;;;1.80;88.90;;;;;;5132467;27;20055;-31
2023/12/01 00:33:39;;;;;;;48.80;16.10;;;1.80;89.00;;;;;;5132545;27;20027;-32
2023/12/01 00:36:05;;;;;;;44.92;15.70;;;1.90;89.00;;;;;;5132649;27;20058;-33
2023/12/01 00:38:32;;;;;;;48.50;16.90;;;2.00;88.80;;;;;;5132313;27;20470;-33
2023/12/01 00:40:57;;;;;;;51.67;18.27;;;2.00;88.60;;;;;;5132563;27;20047;-32
2023/12/01 00:43:24;;;;;;;51.00;17.55;;;1.90;88.40;;;;;;5132442;27;20051;-33
2023/12/01 00:45:49;;;;;;;48.70;16.52;;;1.80;88.30;;;;;;5132558;27;20019;-38
2023/12/01 00:48:15;;;;;;;48.58;17.02;;;1.80;88.60;;;;;;5132059;27;20079;-33
2023/12/01 00:50:40;;;;;;;43.53;16.52;;;1.90;88.70;;;;;;5132416;27;20023;-34
2023/12/01 00:53:06;;;;;;;48.50;18.23;;;1.80;88.70;;;;;;5131931;27;20027;-32
2023/12/01 00:55:32;;;;;;;47.45;17.08;;;1.80;88.40;;;;;;5132451;27;20038;-32
2023/12/01 00:57:57;;;;;;;51.72;18.15;;;1.80;88.50;;;;;;5132026;27;20023;-33
2023/12/01 01:00:23;;;;;;;54.38;17.60;;;1.70;88.60;;;;;;5132436;27;20023;-32
2023/12/01 01:02:50;;;;;;;48.75;17.33;;;1.60;88.70;;;;;;5131804;27;20019;-32
2023/12/01 01:05:16;;;;;;;56.38;18.40;;;1.60;88.80;;;;;;5132072;27;20020;-32
2023/12/01 01:07:42;;;;;;;49.92;18.30;;;1.60;88.90;;;;;;5131828;27;20027;-33
2023/12/01 01:10:08;;;;;;;50.60;17.40;;;1.70;89.10;;;;;;5132309;27;20034;-32
2023/12/01 01:12:34;;;;;;;50.22;17.70;;;1.70;89.00;;;;;;5131827;27;20027;-33
2023/12/01 01:15:03;;;;;;;56.40;19.55;;;1.80;88.70;;;;;;5132292;27;20027;-32
2023/12/01 01:17:32;;;;;;;56.67;19.00;;;1.70;88.40;;;;;;5135169;27;20072;-31
2023/12/01 01:19:59;;;;;;;56.58;18.63;;;1.60;88.60;;;;;;5136282;27;20030;-32
2023/12/01 01:22:26;;;;;;;52.80;17.35;;;1.70;89.00;;;;;;5135895;27;20023;-34
2023/12/01 01:24:52;;;;;;;47.42;16.25;;;1.70;89.10;;;;;;5135057;27;20050;-33
2023/12/01 01:27:17;;;;;;;55.08;17.23;;;1.80;89.10;;;;;;5136038;27;20391;-32
2023/12/01 01:29:46;;;;;;;56.95;17.67;;;1.80;89.00;;;;;;5135885;27;20034;-31
2023/12/01 01:32:12;;;;;;;53.58;17.73;;;1.90;89.00;;;;;;5136400;27;20026;-33
2023/12/01 01:34:38;;;;;;;48.90;16.55;;;1.90;88.90;;;;;;5135802;27;20031;-33
2023/12/01 01:37:04;;;;;;;54.33;17.98;;;1.90;88.90;;;;;;5136121;27;20031;-32
2023/12/01 01:39:29;;;;;;;60.25;19.75;;;1.90;88.80;;;;;;5136125;27;20348;-33
2023/12/01 01:41:56;;;;;;;62.20;19.30;;;2.00;88.90;;;;;;5135937;27;20030;-33
2023/12/01 01:44:22;;;;;;;54.78;19.05;;;2.00;88.90;;;;;;5135592;27;20027;-33
2023/12/01 01:46:50;;;;;;;62.17;19.75;;;2.00;88.80;;;;;;5136203;27;20102;-33
2023/12/01 01:49:16;;;;;;;60.70;20.15;;;2.00;88.70;;;;;;5135404;27;20023;-33
2023/12/01 01:51:42;;;;;;;56.88;18.77;;;2.00;88.80;;;;;;5135576;27;20023;-33
2023/12/01 01:54:09;;;;;;;58.97;19.52;;;2.10;88.90;;;;;;5135545;27;20051;-32
2023/12/01 01:56:35;;;;;;;61.70;20.13;;;2.10;88.90;;;;;;5135682;27;20072;-32
2023/12/01 01:59:00;;;;;;;57.15;19.20;;;2.20;88.90;;;;;;5135485;27;20027;-32
2023/12/01 02:01:26;;;;;;;61.55;20.27;;;2.30;88.90;;;;;;5135057;27;20039;-32
2023/12/01 02:03:53;;;;;;;61.60;20.70;;;2.40;88.80;;;;;;5135188;27;20076;-33
2023/12/01 02:06:19;;;;;;;57.53;20.25;;;2.40;88.70;;;;;;5135529;27;20019;-33
2023/12/01 02:08:45;;;;;;;64.75;21.25;;;2.30;88.50;;;;;;5135124;27;20355;-33
2023/12/01 02:11:13;;;;;;;63.97;21.17;;;2.40;88.50;;;;;;5135292;27;20027;-34
2023/12/01 02:13:39;;;;;;;68.40;22.75;;;2.40;88.50;;;;;;5135797;27;20515;-33
2023/12/01 02:16:06;;;;;;;62.97;21.83;;;2.40;88.20;;;;;;5135143;27;20031;-32
2023/12/01 02:18:33;;;;;;;62.08;21.50;;;2.40;88.30;;;;;;5134964;27;20077;-34
2023/12/01 02:20:59;;;;;;;64.82;22.48;;;2.40;88.40;;;;;;5135255;27;20019;-33
2023/12/01 02:23:26;;;;;;;55.60;20.88;;;2.30;88.40;;;;;;5134992;27;20026;-33
2023/12/01 02:25:52;;;;;;;59.75;21.50;;;2.30;88.50;;;;;;5134960;27;20023;-33
2023/12/01 02:28:17;;;;;;;55.55;20.02;;;2.30;88.50;;;;;;5133909;27;20046;-32
2023/12/01 02:30:55;;;;;;;57.75;20.17;;;2.40;88.60;;;;;;5135024;27;20047;-33
2023/12/01 02:33:21;;;;;;;65.90;21.83;;;2.40;88.60;;;;;;5134605;27;20023;-35
2023/12/01 02:35:51;;;;;;;57.65;20.52;;;2.50;88.50;;;;;;5134719;27;20027;-33
2023/12/01 02:38:17;;;;;;;53.53;18.45;;;2.50;88.50;;;;;;5134909;27;20463;-33
2023/12/01 02:40:49;;;;;;;49.15;19.20;;;2.50;88.40;;;;;;5134906;27;20039;-34
2023/12/01 02:43:15;;;;;;;50.38;19.00;;;2.60;88.40;;;;;;5134528;27;20022;-33
2023/12/01 02:45:41;;;;;;;55.05;20.67;;;2.60;88.30;;;;;;5134678;27;20023;-34
2023/12/01 02:48:06;;;;;;;54.95;20.48;;;2.60;88.20;;;;;;5134719;27;20027;-32
2023/12/01 02:50:33;;;;;;;51.10;20.85;;;2.60;88.30;;;;;;5134492;27;20038;-34
2023/12/01 02:52:59;;;;;;;53.13;19.88;;;2.70;88.30;;;;;;5134294;27;20091;-34
2023/12/01 02:55:25;;;;;;;47.03;18.60;;;2.70;88.30;;;;;;5134418;27;20398;-34
2023/12/01 02:57:50;;;;;;;47.42;19.90;;;2.80;88.20;;;;;;5134345;27;20052;-34
2023/12/01 03:00:16;;;;;;;50.15;19.40;;;2.80;88.10;;;;;;5134296;27;20141;-34
2023/12/01 03:02:44;;;;;;;48.30;19.75;;;2.80;88.10;;;;;;5134175;27;20387;-34
2023/12/01 03:05:10;;;;;;;46.97;19.02;;;2.80;88.00;;;;;;5134614;27;20505;-32
2023/12/01 03:07:36;;;;;;;43.45;18.70;;;2.90;88.00;;;;;;5134145;27;20025;-32
2023/12/01 03:10:03;;;;;;;44.38;18.77;;;2.90;88.00;;;;;;5134111;27;20035;-32
2023/12/01 03:12:28;;;;;;;45.58;18.88;;;2.90;87.90;;;;;;5133830;27;20383;-31
2023/12/01 03:14:54;;;;;;;46.13;18.17;;;2.90;87.80;;;;;;5134098;27;20023;-31
2023/12/01 03:17:23;;;;;;;44.78;17.88;;;2.90;87.80;;;;;;5132734;27;20023;-33
2023/12/01 03:19:49;;;;;;;48.80;18.45;;;2.90;87.80;;;;;;5133871;27;20068;-33
2023/12/01 03:22:14;;;;;;;50.88;19.38;;;2.90;87.90;;;;;;5133887;27;20424;-33
2023/12/01 03:24:42;;;;;;;43.83;18.90;;;2.90;87.90;;;;;;5133679;27;20022;-33
2023/12/01 03:27:07;;;;;;;46.05;18.08;;;2.90;87.80;;;;;;5133811;27;20023;-32
2023/12/01 03:29:37;;;;;;;42.63;17.45;;;2.90;87.80;;;;;;5133592;27;20068;-33
2023/12/01 03:32:04;;;;;;;43.90;17.48;;;2.90;87.70;;;;;;5133587;27;20424;-33
2023/12/01 03:34:30;;;;;;;44.60;18.38;;;2.90;87.70;;;;;;5133669;27;20471;-33
2023/12/01 03:36:56;;;;;;;41.15;17.45;;;2.90;87.70;;;;;;5133537;27;20027;-33
2023/12/01 03:39:21;;;;;;;41.85;17.15;;;3.00;87.80;;;;;;5132622;27;20023;-33
2023/12/01 03:41:50;;;;;;;41.30;17.80;;;3.00;87.80;;;;;;5133241;27;20058;-32
2023/12/01 03:44:16;;;;;;;44.90;17.80;;;3.00;87.80;;;;;;5132043;27;20068;-34
2023/12/01 03:46:41;;;;;;;40.67;17.67;;;3.00;87.80;;;;;;5133313;27;20023;-32
2023/12/01 03:49:07;;;;;;;37.25;16.63;;;3.00;87.70;;;;;;5131830;27;20090;-35
2023/12/01 03:51:34;;;;;;;40.38;17.48;;;3.00;87.60;;;;;;5133271;27;20034;-33
2023/12/01 03:53:59;;;;;;;40.40;17.20;;;3.00;87.60;;;;;;5133223;27;20485;-33
2023/12/01 03:56:25;;;;;;;42.70;17.52;;;3.10;87.60;;;;;;5133382;27;20027;-31
2023/12/01 03:58:54;;;;;;;41.20;17.40;;;3.10;87.60;;;;;;5133077;27;20031;-33
2023/12/01 04:01:20;;;;;;;37.78;16.33;;;3.10;87.60;;;;;;5133101;27;20033;-33
2023/12/01 04:03:46;;;;;;;42.35;16.58;;;3.10;87.60;;;;;;5132973;27;20027;-33
2023/12/01 04:06:12;;;;;;;40.50;17.83;;;3.10;87.50;;;;;;5133153;27;20034;-33
2023/12/01 04:08:38;;;;;;;43.67;16.85;;;3.10;87.50;;;;;;5132751;27;20446;-33
2023/12/01 04:11:04;;;;;;;35.22;15.40;;;3.20;87.60;;;;;;5133022;27;20425;-34
2023/12/01 04:13:29;;;;;;;38.15;16.20;;;3.20;87.50;;;;;;5132632;27;20023;-33
2023/12/01 04:15:55;;;;;;;38.40;17.02;;;3.20;87.40;;;;;;5133017;27;20027;-33
2023/12/01 04:18:21;;;;;;;36.40;15.88;;;3.10;87.40;;;;;;5132532;27;20421;-34
2023/12/01 04:20:47;;;;;;;40.53;17.00;;;3.10;87.40;;;;;;5133014;27;20382;-33
2023/12/01 04:23:14;;;;;;;39.45;16.92;;;3.10;87.60;;;;;;5132647;27;20107;-30
2023/12/01 04:25:46;;;;;;;37.75;15.77;;;3.10;87.40;;;;;;5132756;27;20031;-33
2023/12/01 04:28:13;;;;;;;38.15;16.63;;;3.10;87.50;;;;;;5132788;27;20023;-32
2023/12/01 04:30:38;;;;;;;42.55;17.33;;;3.00;87.40;;;;;;5132436;27;20055;-32
2023/12/01 04:33:04;;;;;;;40.08;17.05;;;3.00;87.50;;;;;;5131389;27;20154;-33
2023/12/01 04:35:31;;;;;;;47.20;19.33;;;3.00;87.60;;;;;;5131243;27;20391;-32
2023/12/01 04:37:59;;;;;;;43.55;18.80;;;3.00;87.60;;;;;;5132730;27;20099;-30
2023/12/01 04:40:27;;;;;;;45.13;18.33;;;2.90;87.50;;;;;;5132408;27;20065;-32
2023/12/01 04:42:55;;;;;;;45.42;20.05;;;2.90;87.40;;;;;;5132939;27;20075;-32
2023/12/01 04:45:21;;;;;;;53.08;22.30;;;2.80;87.40;;;;;;5131060;27;20403;-32
2023/12/01 04:47:51;;;;;;;45.78;19.25;;;2.80;87.40;;;;;;5132577;27;20538;-32
2023/12/01 04:50:19;;;;;;;53.63;21.98;;;2.70;87.60;;;;;;5131870;27;20019;-32
2023/12/01 04:52:47;;;;;;;48.78;21.13;;;2.70;87.60;;;;;;5132557;27;20443;-32
2023/12/01 04:55:17;;;;;;;53.08;20.63;;;2.70;87.70;;;;;;5132245;27;20466;-34
2023/12/01 04:57:44;;;;;;;48.85;20.48;;;2.70;87.70;;;;;;5132430;27;20027;-35
2023/12/01 05:00:21;;;;;;;43.45;18.90;;;2.70;87.50;;;;;;5132314;27;20019;-34
2023/12/01 05:02:54;;;;;;;46.88;19.10;;;2.60;87.60;;;;;;5132296;27;20084;-34
2023/12/01 05:05:25;;;;;;;47.08;18.88;;;2.70;87.80;;;;;;5130996;28;20023;-34
2023/12/01 05:07:52;;;;;;;52.22;21.90;;;2.70;87.80;;;;;;5132358;27;20019;-34
2023/12/01 05:10:22;;;;;;;50.67;20.65;;;2.70;87.80;;;;;;5132110;27;20030;-33
2023/12/01 05:12:49;;;;;;;50.17;20.13;;;2.70;87.70;;;;;;5132336;27;20550;-33
2023/12/01 05:15:21;;;;;;;51.55;20.98;;;2.70;87.80;;;;;;5132204;27;20497;-33
2023/12/01 05:17:52;;;;;;;57.58;23.23;;;2.70;87.80;;;;;;5131994;27;20054;-34
2023/12/01 05:20:19;;;;;;;50.85;20.15;;;2.80;87.70;;;;;;5131774;27;20133;-34
2023/12/01 05:22:49;;;;;;;48.75;19.15;;;2.80;87.80;;;;;;5132200;27;20063;-34
2023/12/01 05:25:16;;;;;;;46.03;18.88;;;2.80;87.80;;;;;;5132060;28;20375;-33
2023/12/01 05:27:46;;;;;;;44.30;18.55;;;2.80;87.80;;;;;;5132255;27;20024;-33
2023/12/01 05:30:14;;;;;;;44.63;18.35;;;2.90;87.80;;;;;;5131879;27;20075;-35
2023/12/01 05:32:44;;;;;;;41.90;18.20;;;2.90;87.80;;;;;;5130799;28;20023;-33
2023/12/01 05:35:10;;;;;;;45.85;18.80;;;2.90;87.70;;;;;;5131903;27;20023;-33
2023/12/01 05:37:48;;;;;;;42.85;18.40;;;2.90;87.70;;;;;;5131943;27;20127;-33
2023/12/01 05:40:26;;;;;;;49.08;20.80;;;2.90;87.50;;;;;;5131830;27;20506;-34
2023/12/01 05:42:54;;;;;;;47.38;20.40;;;2.90;87.40;;;;;;5132022;27;20107;-33
2023/12/01 05:45:21;;;;;;;49.17;20.55;;;2.80;87.60;;;;;;5131748;27;20020;-33
2023/12/01 05:47:50;;;;;;;54.13;21.20;;;2.80;87.60;;;;;;5131965;27;20022;-33
2023/12/01 05:50:17;;;;;;;49.28;21.00;;;2.70;87.50;;;;;;5131715;27;20538;-33
2023/12/01 05:52:45;;;;;;;50.17;20.00;;;2.70;87.80;;;;;;5131852;27;20585;-33
2023/12/01 05:55:21;;;;;;;46.67;21.27;;;2.70;87.90;;;;;;5131667;27;20046;-33
2023/12/01 05:57:48;;;;;;;42.08;19.58;;;2.70;87.90;;;;;;5131818;27;20762;-34
2023/12/01 06:00:17;;;;;;;51.08;19.92;;;2.70;87.90;;;;;;5130410;28;20039;-33
2023/12/01 06:02:44;;;;;;;46.63;19.42;;;2.70;88.50;;;;;;5132004;27;20019;-33
2023/12/01 06:05:11;;;;;;;45.28;19.13;;;2.70;87.90;;;;;;5135356;27;20054;-32
2023/12/01 06:07:37;;;;;;;44.00;17.88;;;2.70;87.50;;;;;;5135385;27;20015;-33
2023/12/01 06:10:05;;;;;;;33.17;14.88;;;2.70;87.40;;;;;;5135269;27;20046;-33
2023/12/01 06:12:32;;;;;;;29.45;13.68;;;2.60;87.20;;;;;;5134000;27;20114;-34
2023/12/01 06:14:58;;;;;;;28.15;12.85;;;2.60;87.40;;;;;;5135221;27;20023;-33
2023/12/01 06:17:24;;;;;;;27.65;12.32;;;2.60;87.40;;;;;;5135011;27;20027;-33
2023/12/01 06:19:49;;;;;;;27.30;12.40;;;2.60;87.30;;;;;;5134923;27;20458;-33
2023/12/01 06:22:15;;;;;;;28.05;11.63;;;2.60;87.20;;;;;;5134928;27;20490;-33
2023/12/01 06:24:41;;;;;;;26.85;11.05;;;2.70;87.20;;;;;;5134865;27;20030;-33
2023/12/01 06:27:07;;;;;;;26.15;12.07;;;2.70;87.10;;;;;;5134950;27;20156;-37
2023/12/01 06:29:32;;;;;;;22.23;10.48;;;2.70;87.00;;;;;;5134877;27;20107;-33
2023/12/01 06:31:58;;;;;;;24.00;10.52;;;2.80;87.00;;;;;;5134793;27;20050;-33
2023/12/01 06:34:24;;;;;;;26.25;11.52;;;2.80;86.90;;;;;;5133677;27;20186;-33
2023/12/01 06:36:49;;;;;;;20.95;9.77;;;2.80;86.80;;;;;;5134567;27;20024;-33
2023/12/01 06:39:15;;;;;;;23.42;10.45;;;2.80;86.70;;;;;;5134459;27;20023;-33
2023/12/01 06:41:41;;;;;;;25.38;10.95;;;2.80;86.60;;;;;;5134629;27;20024;-34
2023/12/01 06:44:07;;;;;;;23.15;10.32;;;2.80;86.50;;;;;;5134764;27;20030;-34
2023/12/01 06:46:33;;;;;;;22.83;9.77;;;2.80;86.50;;;;;;5134557;27;20102;-33
2023/12/01 06:48:59;;;;;;;21.17;10.23;;;2.80;86.50;;;;;;5134247;27;20458;-33
2023/12/01 06:51:25;;;;;;;22.70;10.25;;;2.80;86.50;;;;;;5134276;27;20034;-33
2023/12/01 06:53:51;;;;;;;24.25;10.18;;;2.80;86.40;;;;;;5134603;27;20027;-33
2023/12/01 06:56:17;;;;;;;24.48;11.02;;;2.70;86.10;;;;;;5134565;27;20080;-33
2023/12/01 06:58:42;;;;;;;25.52;11.65;;;2.70;86.30;;;;;;5134279;27;20031;-35
2023/12/01 07:01:08;;;;;;;27.17;11.57;;;2.70;86.30;;;;;;5132625;27;20403;-36
2023/12/01 07:03:33;;;;;;;24.45;10.20;;;2.70;86.40;;;;;;5134579;27;20121;-35
2023/12/01 07:05:59;;;;;;;24.02;11.10;;;2.70;86.30;;;;;;5134028;27;20054;-34
2023/12/01 07:08:24;;;;;;;26.63;10.93;;;2.70;86.20;;;;;;5134327;27;20027;-33
2023/12/01 07:10:51;;;;;;;23.80;10.55;;;2.70;86.20;;;;;;5134332;27;20027;-33
2023/12/01 07:13:17;;;;;;;25.10;11.20;;;2.60;86.20;;;;;;5134304;27;20023;-33
2023/12/01 07:15:43;;;;;;;25.52;10.73;;;2.60;86.00;;;;;;5133843;27;20360;-34
2023/12/01 07:18:09;;;;;;;24.70;10.65;;;2.60;86.10;;;;;;5133798;27;20035;-33
2023/12/01 07:20:35;;;;;;;24.30;11.55;;;2.50;86.20;;;;;;5133824;27;20027;-32
2023/12/01 07:23:00;;;;;;;22.77;10.85;;;2.50;86.20;;;;;;5133746;27;20094;-32
2023/12/01 07:25:26;;;;;;;26.55;11.18;;;2.50;85.90;;;;;;5133793;27;20147;-33
2023/12/01 07:28:02;;;;;;;27.98;11.57;;;2.40;85.60;;;;;;5133768;27;20143;-34
2023/12/01 07:30:28;;;;;;;27.50;11.05;;;2.30;85.50;;;;;;5133793;27;20051;-34
2023/12/01 07:32:55;;;;;;;23.52;10.60;;;2.20;85.60;;;;;;5134020;27;20546;-34
2023/12/01 07:35:21;;;;;;;22.58;9.80;;;2.20;86.00;;;;;;5133930;27;20038;-34
2023/12/01 07:37:48;;;;;;;21.27;9.68;;;2.10;85.90;;;;;;5133824;27;20389;-33
2023/12/01 07:40:19;;;;;;;21.45;10.13;;;2.20;86.20;;;;;;5133839;27;20088;-33
2023/12/01 07:42:46;;;;;;;20.58;9.55;;;2.20;86.20;;;;;;5134065;27;20027;-34
2023/12/01 07:45:14;;;;;;;19.70;9.38;;;2.30;86.10;;;;;;5133331;27;20019;-33
2023/12/01 07:47:39;;;;;;;23.70;9.63;;;2.30;86.20;;;;;;5133511;27;20034;-33
2023/12/01 07:50:07;;;;;;;21.10;9.00;;;2.30;86.10;;;;;;5133322;27;20467;-34
2023/12/01 07:52:32;;;;;;;19.63;9.88;;;2.30;86.00;;;;;;5133198;27;20106;-33
2023/12/01 07:54:58;;;;;;;19.92;8.70;;;2.30;86.00;;;;;;5133086;27;20111;-32
2023/12/01 07:57:24;;;;;;;20.02;8.63;;;2.30;86.00;;;;;;5133509;27;20031;-33
2023/12/01 07:59:49;;;;;;;18.95;8.00;;;2.30;86.00;;;;;;5133012;27;20049;-34
2023/12/01 08:02:15;;;;;;;21.65;8.65;;;2.30;86.00;;;;;;5133337;27;20019;-33
2023/12/01 08:04:41;;;;;;;21.10;9.23;;;2.40;85.90;;;;;;5132889;27;20019;-33
2023/12/01 08:07:07;;;;;;;20.88;9.73;;;2.30;85.70;;;;;;5133284;27;20029;-32
2023/12/01 08:09:33;;;;;;;18.65;8.50;;;2.30;85.70;;;;;;5133279;27;20027;-34
2023/12/01 08:11:59;;;;;;;20.30;8.68;;;2.30;85.80;;;;;;5133006;27;20053;-33
2023/12/01 08:14:25;;;;;;;18.33;8.75;;;2.30;85.80;;;;;;5132845;27;20031;-34
2023/12/01 08:16:54;;;;;;;17.42;8.18;;;2.40;85.70;;;;;;5133180;27;20075;-33
2023/12/01 08:19:19;;;;;;;16.80;7.65;;;2.40;85.70;;;;;;5132834;27;20024;-34
2023/12/01 08:21:45;;;;;;;21.80;8.68;;;2.40;85.60;;;;;;5132855;27;20118;-33
2023/12/01 08:24:11;;;;;;;16.15;7.72;;;2.40;85.30;;;;;;5133187;27;20068;-34
2023/12/01 08:26:37;;;;;;;18.27;8.60;;;2.40;85.30;;;;;;5132163;27;20027;-34
2023/12/01 08:29:03;;;;;;;19.65;8.50;;;2.30;85.30;;;;;;5133205;27;20031;-34
2023/12/01 08:31:30;;;;;;;19.90;8.63;;;2.40;85.30;;;;;;5132466;27;20088;-33
2023/12/01 08:33:56;;;;;;;17.67;7.78;;;2.30;85.20;;;;;;5132737;27;20072;-33
2023/12/01 08:36:22;;;;;;;15.07;7.30;;;2.30;85.20;;;;;;5132732;27;20446;-34
2023/12/01 08:38:47;;;;;;;16.48;7.88;;;2.30;85.10;;;;;;5131560;27;20023;-33
2023/12/01 08:41:13;;;;;;;18.67;7.97;;;2.40;85.10;;;;;;5132317;27;20101;-36
2023/12/01 08:43:38;;;;;;;15.18;7.75;;;2.40;85.10;;;;;;5132514;27;20019;-33
2023/12/01 08:46:04;;;;;;;17.23;7.72;;;2.40;84.90;;;;;;5132427;27;20030;-33
2023/12/01 08:48:30;;;;;;;18.40;7.85;;;2.40;84.70;;;;;;5130922;27;20034;-33
2023/12/01 08:50:55;;;;;;;19.23;8.07;;;2.30;84.60;;;;;;5132730;27;20072;-32
2023/12/01 08:53:22;;;;;;;18.48;7.88;;;2.30;84.60;;;;;;5132388;27;20023;-34
2023/12/01 08:55:48;;;;;;;17.52;7.55;;;2.30;84.60;;;;;;5132614;27;20382;-33
2023/12/01 08:58:13;;;;;;;16.00;7.55;;;2.30;84.50;;;;;;5132456;27;20031;-34
2023/12/01 09:00:40;;;;;;;17.05;7.93;;;2.30;84.30;;;;;;5132317;27;20398;-34
2023/12/01 09:03:06;;;;;;;18.42;8.77;;;2.30;84.30;;;;;;5132643;27;20027;-34
2023/12/01 09:05:32;;;;;;;17.65;8.75;;;2.30;84.30;;;;;;5132706;27;20024;-36
2023/12/01 09:07:59;;;;;;;18.50;8.40;;;2.30;84.30;;;;;;5132516;27;20028;-33
2023/12/01 09:10:26;;;;;;;17.77;7.55;;;2.30;84.20;;;;;;5132418;27;20031;-35
2023/12/01 09:12:52;;;;;;;19.20;8.45;;;2.30;84.10;;;;;;5132615;27;20027;-34
2023/12/01 09:15:18;;;;;;;16.30;7.28;;;2.30;83.90;;;;;;5130874;28;20023;-34
2023/12/01 09:17:43;;;;;;;17.63;7.63;;;2.30;84.00;;;;;;5132023;27;20035;-35
2023/12/01 09:20:09;;;;;;;18.95;7.90;;;2.40;84.10;;;;;;5132618;27;20099;-33
2023/12/01 09:22:36;;;;;;;16.15;7.32;;;2.40;84.10;;;;;;5132392;27;20165;-38
2023/12/01 09:25:02;;;;;;;17.40;7.25;;;2.50;84.10;;;;;;5130724;27;20354;-34
2023/12/01 09:27:28;;;;;;;17.55;8.02;;;2.60;84.00;;;;;;5130891;28;20035;-34
2023/12/01 09:29:53;;;;;;;18.38;8.20;;;2.60;83.70;;;;;;5131892;27;20038;-34
2023/12/01 09:32:19;;;;;;;17.08;7.40;;;2.60;83.60;;;;;;5131840;27;20034;-36
2023/12/01 09:34:45;;;;;;;16.70;7.80;;;2.70;83.60;;;;;;5132076;27;20110;-34
2023/12/01 09:37:12;;;;;;;15.57;6.78;;;2.70;83.60;;;;;;5133088;27;20150;-34
2023/12/01 09:39:37;;;;;;;19.77;8.40;;;2.70;83.50;;;;;;5136349;27;20027;-34
2023/12/01 09:42:09;;;;;;;17.27;7.80;;;2.70;83.60;;;;;;5135820;27;20023;-34
2023/12/01 09:44:35;;;;;;;15.57;7.32;;;2.80;83.40;;;;;;5136322;27;20027;-34
2023/12/01 09:47:03;;;;;;;17.25;7.93;;;2.70;83.30;;;;;;5135891;27;20023;-34
2023/12/01 09:49:33;;;;;;;15.68;7.32;;;2.70;83.40;;;;;;5135687;27;20095;-33
2023/12/01 09:52:02;;;;;;;17.75;7.95;;;2.80;83.40;;;;;;5135696;27;20038;-33
2023/12/01 09:54:29;;;;;;;15.60;7.57;;;2.80;83.20;;;;;;5136179;27;20414;-32
2023/12/01 09:56:57;;;;;;;17.60;7.45;;;2.80;83.20;;;;;;5135485;27;20023;-33
2023/12/01 09:59:23;;;;;;;18.75;7.90;;;2.80;83.40;;;;;;5135768;27;20019;-34
2023/12/01 10:01:49;;;;;;;19.25;7.85;;;2.80;83.40;;;;;;5135316;27;20387;-33
2023/12/01 10:04:16;;;;;;;17.50;7.97;;;2.90;83.40;;;;;;5135927;27;20027;-33
2023/12/01 10:06:41;;;;;;;17.92;8.30;;;2.90;83.70;;;;;;5135248;27;20019;-32
2023/12/01 10:09:10;;;;;;;17.20;7.38;;;2.80;83.00;;;;;;5135785;27;20029;-31
2023/12/01 10:11:37;;;;;;;15.95;7.43;;;2.80;82.90;;;;;;5135048;27;20027;-32
2023/12/01 10:14:06;;;;;;;20.77;8.43;;;2.80;83.00;;;;;;5135571;27;20030;-33
2023/12/01 10:16:38;;;;;;;18.55;7.68;;;2.80;83.00;;;;;;5135323;27;20027;-32
2023/12/01 10:19:05;;;;;;;17.92;7.18;;;2.80;83.00;;;;;;5135400;27;20083;-32
2023/12/01 10:21:47;;;;;;;16.70;6.75;;;2.80;82.90;;;;;;5135070;27;20019;-34
2023/12/01 10:24:30;;;;;;;15.13;7.35;;;2.80;83.00;;;;;;5135143;27;20015;-35
2023/12/01 10:26:56;;;;;;;15.25;7.32;;;2.80;82.70;;;;;;5135328;27;20019;-33
2023/12/01 10:29:28;;;;;;;17.63;7.60;;;2.70;82.30;;;;;;5135065;27;20026;-33
2023/12/01 10:31:57;;;;;;;18.77;8.43;;;2.60;82.30;;;;;;5134547;27;20043;-37
2023/12/01 10:34:23;;;;;;;18.30;8.05;;;2.60;82.60;;;;;;5134941;27;20080;-33
2023/12/01 10:36:52;;;;;;;17.52;8.20;;;2.60;82.70;;;;;;5135017;27;20038;-33
2023/12/01 10:39:20;;;;;;;17.80;7.97;;;2.60;82.60;;;;;;5135171;27;20105;-33
2023/12/01 10:41:47;;;;;;;16.58;7.65;;;2.60;82.70;;;;;;5134574;27;20019;-36
2023/12/01 10:44:18;;;;;;;14.35;7.05;;;2.70;82.80;;;;;;5135080;27;20027;-39
2023/12/01 10:46:47;;;;;;;18.17;7.93;;;2.70;82.70;;;;;;5134885;27;20023;-33
2023/12/01 10:49:17;;;;;;;19.40;7.82;;;2.80;82.60;;;;;;5134292;27;20084;-33
2023/12/01 10:51:44;;;;;;;16.27;7.30;;;2.80;82.60;;;;;;5134754;27;20506;-33
2023/12/01 10:54:11;;;;;;;15.95;7.95;;;2.80;82.60;;;;;;5134498;27;20034;-33
2023/12/01 10:56:42;;;;;;;17.85;8.32;;;2.90;82.50;;;;;;5134781;27;20046;-33
2023/12/01 10:59:14;;;;;;;17.52;7.75;;;2.90;82.30;;;;;;5134408;27;20065;-34
2023/12/01 11:01:41;;;;;;;15.63;7.35;;;3.00;82.40;;;;;;5134151;27;20551;-34
2023/12/01 11:04:10;;;;;;;15.93;7.35;;;3.00;82.40;;;;;;5134168;27;20022;-33
2023/12/01 11:07:00;;;;;;;15.35;6.93;;;2.90;82.20;;;;;;5133891;27;20105;-33
2023/12/01 11:09:43;;;;;;;19.10;8.30;;;2.90;82.20;;;;;;5134003;27;20019;-34
2023/12/01 11:12:26;;;;;;;15.40;7.23;;;2.90;82.20;;;;;;5133997;27;20023;-33
2023/12/01 11:14:54;;;;;;;14.43;6.65;;;2.90;82.20;;;;;;5134292;27;20424;-33
2023/12/01 11:17:20;;;;;;;16.15;7.88;;;2.90;82.20;;;;;;5133981;27;20118;-33
2023/12/01 11:19:45;;;;;;;14.15;6.43;;;2.90;82.20;;;;;;5134055;27;20077;-33
2023/12/01 11:22:32;;;;;;;15.88;7.28;;;3.00;82.20;;;;;;5133503;27;20022;-33
2023/12/01 11:24:58;;;;;;;17.13;6.63;;;3.00;82.20;;;;;;5133841;27;20027;-33
2023/12/01 11:27:28;;;;;;;18.80;8.20;;;3.00;82.20;;;;;;5133805;27;20197;-33
2023/12/01 11:30:08;;;;;;;16.52;7.25;;;3.00;82.00;;;;;;5133650;27;20046;-33
2023/12/01 11:32:39;;;;;;;15.27;7.32;;;3.00;82.00;;;;;;5131795;27;20031;-34
2023/12/01 11:35:09;;;;;;;15.75;7.53;;;3.00;82.00;;;;;;5133862;27;20111;-35
2023/12/01 11:38:05;;;;;;;17.30;7.68;;;3.00;81.90;;;;;;5133440;27;20031;-33
2023/12/01 11:40:40;;;;;;;15.07;7.00;;;3.00;81.80;;;;;;5118974;27;20084;-32
2023/12/01 11:43:11;;;;;;;15.57;7.22;;;3.00;81.90;;;;;;5133656;27;20019;-34
2023/12/01 11:45:39;;;;;;;18.73;8.32;;;2.90;81.90;;;;;;5133586;27;20126;-34
2023/12/01 11:48:07;;;;;;;15.10;7.68;;;2.90;82.10;;;;;;5133205;27;20027;-34
2023/12/01 11:50:33;;;;;;;20.08;8.82;;;2.90;82.00;;;;;;5133154;27;20113;-33
2023/12/01 11:52:59;;;;;;;16.27;7.47;;;2.90;82.00;;;;;;5133298;27;20052;-33
2023/12/01 11:55:25;;;;;;;20.50;8.90;;;2.90;81.90;;;;;;5133303;27;20023;-31
2023/12/01 11:57:53;;;;;;;17.52;8.27;;;2.90;81.60;;;;;;5133295;27;20452;-32
2023/12/01 12:00:19;;;;;;;18.40;9.35;;;2.80;81.70;;;;;;5132638;27;20023;-33
2023/12/01 12:02:45;;;;;;;20.23;9.25;;;2.70;80.90;;;;;;5131249;27;20493;-34
2023/12/01 12:05:12;;;;;;;19.85;8.98;;;2.60;80.60;;;;;;5133515;27;20027;-33
2023/12/01 12:07:38;;;;;;;20.27;9.13;;;2.40;80.40;;;;;;5133220;27;20045;-33
2023/12/01 12:10:06;;;;;;;17.95;8.77;;;2.20;80.90;;;;;;5133178;27;20030;-34
2023/12/01 12:12:32;;;;;;;21.30;9.32;;;2.10;81.10;;;;;;5132964;27;20030;-34
2023/12/01 12:15:13;;;;;;;19.98;8.50;;;2.00;81.40;;;;;;5132879;27;20371;-32
2023/12/01 12:17:40;;;;;;;18.30;8.65;;;2.00;81.70;;;;;;5131265;27;20530;-33
2023/12/01 12:20:09;;;;;;;19.63;8.18;;;2.10;81.90;;;;;;5132924;27;20079;-35
2023/12/01 12:22:35;;;;;;;18.13;8.32;;;2.20;81.90;;;;;;5132663;27;20023;-34
2023/12/01 12:25:01;;;;;;;18.40;7.90;;;2.20;81.90;;;;;;5132769;27;20031;-34
2023/12/01 12:27:36;;;;;;;18.52;9.40;;;2.30;81.80;;;;;;5132717;27;20030;-33
2023/12/01 12:30:03;;;;;;;22.45;9.10;;;2.30;81.60;;;;;;5132613;27;21028;-33
2023/12/01 12:32:29;;;;;;;17.58;8.77;;;2.30;81.50;;;;;;5130993;27;20490;-33
2023/12/01 12:34:55;;;;;;;20.88;9.07;;;2.30;81.50;;;;;;5132519;27;20050;-33
2023/12/01 12:37:22;;;;;;;18.30;8.43;;;2.30;81.50;;;;;;5132303;27;20019;-33
2023/12/01 12:39:50;;;;;;;19.05;8.35;;;2.30;81.50;;;;;;5132956;27;20019;-33
2023/12/01 12:42:16;;;;;;;19.38;9.30;;;2.30;81.60;;;;;;5130898;27;20028;-34